sensor_id;sensor_type;location;lat;lon;timestamp;P1;durP1;ratioP1;P2;durP2;ratioP2
52072;SDS011;38074;51.232;6.826;2022-11-20T00:04:35;1.47;;;1.10;;
52072;SDS011;38074;51.232;6.826;2022-11-20T00:11:51;1.47;;;1.10;;
52072;SDS011;38074;51.232;6.826;2022-11-20T00:19:06;1.50;;;1.10;;
52072;SDS011;38074;51.232;6.826;2022-11-20T00:26:23;2.20;;;1.30;;
52072;SDS011;38074;51.232;6.826;2022-11-20T00:33:40;1.63;;;1.05;;
52072;SDS011;38074;51.232;6.826;2022-11-20T00:41:04;1.57;;;1.33;;
52072;SDS011;38074;51.232;6.826;2022-11-20T00:48:20;1.80;;;1.35;;
52072;SDS011;38074;51.232;6.826;2022-11-20T00:55:36;1.60;;;1.27;;
52072;SDS011;38074;51.232;6.826;2022-11-20T01:02:51;1.90;;;1.60;;
52072;SDS011;38074;51.232;6.826;2022-11-20T01:10:07;2.07;;;1.60;;
52072;SDS011;38074;51.232;6.826;2022-11-20T01:17:23;1.83;;;1.48;;
52072;SDS011;38074;51.232;6.826;2022-11-20T01:24:38;1.97;;;1.40;;
52072;SDS011;38074;51.232;6.826;2022-11-20T01:31:54;2.20;;;1.67;;
52072;SDS011;38074;51.232;6.826;2022-11-20T01:39:19;2.50;;;1.80;;
52072;SDS011;38074;51.232;6.826;2022-11-20T01:46:39;1.75;;;1.30;;
52072;SDS011;38074;51.232;6.826;2022-11-20T01:54:01;1.77;;;1.40;;
52072;SDS011;38074;51.232;6.826;2022-11-20T02:01:20;1.77;;;1.35;;
52072;SDS011;38074;51.232;6.826;2022-11-20T02:08:36;1.92;;;1.50;;
52072;SDS011;38074;51.232;6.826;2022-11-20T02:15:53;2.10;;;1.60;;
52072;SDS011;38074;51.232;6.826;2022-11-20T02:23:11;1.92;;;1.50;;
52072;SDS011;38074;51.232;6.826;2022-11-20T02:30:31;1.98;;;1.42;;
52072;SDS011;38074;51.232;6.826;2022-11-20T02:37:48;2.00;;;1.53;;
52072;SDS011;38074;51.232;6.826;2022-11-20T02:45:05;1.60;;;1.50;;
52072;SDS011;38074;51.232;6.826;2022-11-20T02:52:21;2.72;;;1.80;;
52072;SDS011;38074;51.232;6.826;2022-11-20T02:59:37;1.70;;;1.23;;
52072;SDS011;38074;51.232;6.826;2022-11-20T03:06:52;2.10;;;1.83;;
52072;SDS011;38074;51.232;6.826;2022-11-20T03:14:08;1.93;;;1.70;;
52072;SDS011;38074;51.232;6.826;2022-11-20T03:21:23;1.83;;;1.58;;
52072;SDS011;38074;51.232;6.826;2022-11-20T03:28:39;1.97;;;1.40;;
52072;SDS011;38074;51.232;6.826;2022-11-20T03:36:00;2.08;;;1.67;;
52072;SDS011;38074;51.232;6.826;2022-11-20T03:43:16;3.03;;;1.70;;
52072;SDS011;38074;51.232;6.826;2022-11-20T03:50:31;1.70;;;1.43;;
52072;SDS011;38074;51.232;6.826;2022-11-20T03:57:47;2.07;;;1.63;;
52072;SDS011;38074;51.232;6.826;2022-11-20T04:05:02;2.10;;;1.50;;
52072;SDS011;38074;51.232;6.826;2022-11-20T04:12:18;2.08;;;1.58;;
52072;SDS011;38074;51.232;6.826;2022-11-20T04:19:34;1.90;;;1.53;;
52072;SDS011;38074;51.232;6.826;2022-11-20T04:26:49;2.53;;;1.80;;
52072;SDS011;38074;51.232;6.826;2022-11-20T04:34:05;2.27;;;1.50;;
52072;SDS011;38074;51.232;6.826;2022-11-20T04:41:23;2.17;;;1.67;;
52072;SDS011;38074;51.232;6.826;2022-11-20T04:48:40;2.13;;;1.55;;
52072;SDS011;38074;51.232;6.826;2022-11-20T04:55:59;2.13;;;1.60;;
52072;SDS011;38074;51.232;6.826;2022-11-20T05:03:16;1.90;;;1.40;;
52072;SDS011;38074;51.232;6.826;2022-11-20T05:10:31;1.60;;;1.27;;
52072;SDS011;38074;51.232;6.826;2022-11-20T05:17:48;2.20;;;1.47;;
52072;SDS011;38074;51.232;6.826;2022-11-20T05:25:04;2.13;;;1.60;;
52072;SDS011;38074;51.232;6.826;2022-11-20T05:32:20;1.50;;;1.30;;
52072;SDS011;38074;51.232;6.826;2022-11-20T05:39:35;2.17;;;1.60;;
52072;SDS011;38074;51.232;6.826;2022-11-20T05:46:51;1.67;;;1.40;;
52072;SDS011;38074;51.232;6.826;2022-11-20T05:54:06;1.70;;;1.33;;
52072;SDS011;38074;51.232;6.826;2022-11-20T06:01:23;2.03;;;1.60;;
52072;SDS011;38074;51.232;6.826;2022-11-20T06:08:40;1.38;;;1.27;;
52072;SDS011;38074;51.232;6.826;2022-11-20T06:15:56;2.10;;;1.58;;
52072;SDS011;38074;51.232;6.826;2022-11-20T06:23:12;1.67;;;1.30;;
52072;SDS011;38074;51.232;6.826;2022-11-20T06:30:28;2.17;;;1.38;;
52072;SDS011;38074;51.232;6.826;2022-11-20T06:37:43;1.80;;;1.40;;
52072;SDS011;38074;51.232;6.826;2022-11-20T06:44:58;2.33;;;1.60;;
52072;SDS011;38074;51.232;6.826;2022-11-20T06:52:14;2.27;;;1.80;;
52072;SDS011;38074;51.232;6.826;2022-11-20T06:59:29;2.00;;;1.50;;
52072;SDS011;38074;51.232;6.826;2022-11-20T07:06:45;1.97;;;1.40;;
52072;SDS011;38074;51.232;6.826;2022-11-20T07:14:00;2.00;;;1.53;;
52072;SDS011;38074;51.232;6.826;2022-11-20T07:21:16;2.00;;;1.37;;
52072;SDS011;38074;51.232;6.826;2022-11-20T07:28:32;1.90;;;1.40;;
52072;SDS011;38074;51.232;6.826;2022-11-20T07:35:48;1.90;;;1.52;;
52072;SDS011;38074;51.232;6.826;2022-11-20T07:43:03;1.67;;;1.30;;
52072;SDS011;38074;51.232;6.826;2022-11-20T07:50:19;2.07;;;1.47;;
52072;SDS011;38074;51.232;6.826;2022-11-20T07:57:35;1.63;;;1.23;;
52072;SDS011;38074;51.232;6.826;2022-11-20T08:04:50;2.08;;;1.63;;
52072;SDS011;38074;51.232;6.826;2022-11-20T08:12:06;2.03;;;1.60;;
52072;SDS011;38074;51.232;6.826;2022-11-20T08:19:52;1.80;;;1.48;;
52072;SDS011;38074;51.232;6.826;2022-11-20T08:27:08;1.60;;;1.35;;
52072;SDS011;38074;51.232;6.826;2022-11-20T08:34:23;1.63;;;1.27;;
52072;SDS011;38074;51.232;6.826;2022-11-20T08:41:39;2.40;;;1.87;;
52072;SDS011;38074;51.232;6.826;2022-11-20T08:48:54;2.07;;;1.70;;
52072;SDS011;38074;51.232;6.826;2022-11-20T08:56:10;1.73;;;1.57;;
52072;SDS011;38074;51.232;6.826;2022-11-20T09:03:25;1.48;;;1.20;;
52072;SDS011;38074;51.232;6.826;2022-11-20T09:10:42;1.98;;;1.58;;
52072;SDS011;38074;51.232;6.826;2022-11-20T09:17:58;2.30;;;1.60;;
52072;SDS011;38074;51.232;6.826;2022-11-20T09:25:15;2.70;;;2.10;;
52072;SDS011;38074;51.232;6.826;2022-11-20T09:32:31;3.20;;;1.90;;
52072;SDS011;38074;51.232;6.826;2022-11-20T09:39:46;3.07;;;2.00;;
52072;SDS011;38074;51.232;6.826;2022-11-20T09:47:14;3.77;;;2.27;;
52072;SDS011;38074;51.232;6.826;2022-11-20T09:54:42;5.05;;;2.42;;
52072;SDS011;38074;51.232;6.826;2022-11-20T10:01:59;4.22;;;2.13;;
52072;SDS011;38074;51.232;6.826;2022-11-20T10:32:16;9.50;;;3.58;;
52072;SDS011;38074;51.232;6.826;2022-11-20T10:39:35;9.10;;;3.78;;
52072;SDS011;38074;51.232;6.826;2022-11-20T10:46:55;9.43;;;3.00;;
52072;SDS011;38074;51.232;6.826;2022-11-20T11:01:51;5.50;;;2.38;;
52072;SDS011;38074;51.232;6.826;2022-11-20T11:09:15;4.97;;;2.30;;
52072;SDS011;38074;51.232;6.826;2022-11-20T11:16:35;5.63;;;2.55;;
52072;SDS011;38074;51.232;6.826;2022-11-20T11:24:03;6.00;;;2.45;;
52072;SDS011;38074;51.232;6.826;2022-11-20T11:31:26;6.22;;;2.47;;
52072;SDS011;38074;51.232;6.826;2022-11-20T11:38:48;7.00;;;2.10;;
52072;SDS011;38074;51.232;6.826;2022-11-20T11:46:30;4.95;;;1.98;;
52072;SDS011;38074;51.232;6.826;2022-11-20T11:53:48;5.00;;;2.28;;
52072;SDS011;38074;51.232;6.826;2022-11-20T12:16:14;4.13;;;2.03;;
52072;SDS011;38074;51.232;6.826;2022-11-20T12:46:26;2.60;;;1.75;;
52072;SDS011;38074;51.232;6.826;2022-11-20T12:54:20;2.85;;;1.90;;
52072;SDS011;38074;51.232;6.826;2022-11-20T13:02:01;2.83;;;1.80;;
52072;SDS011;38074;51.232;6.826;2022-11-20T13:09:38;2.60;;;1.80;;
52072;SDS011;38074;51.232;6.826;2022-11-20T13:17:00;3.45;;;1.60;;
52072;SDS011;38074;51.232;6.826;2022-11-20T13:24:32;3.03;;;1.75;;
52072;SDS011;38074;51.232;6.826;2022-11-20T13:31:47;2.10;;;1.70;;
52072;SDS011;38074;51.232;6.826;2022-11-20T13:39:03;2.22;;;1.50;;
52072;SDS011;38074;51.232;6.826;2022-11-20T13:46:19;4.25;;;2.08;;
52072;SDS011;38074;51.232;6.826;2022-11-20T13:53:48;2.63;;;1.77;;
52072;SDS011;38074;51.232;6.826;2022-11-20T14:01:13;2.35;;;1.42;;
52072;SDS011;38074;51.232;6.826;2022-11-20T14:08:39;2.25;;;1.67;;
52072;SDS011;38074;51.232;6.826;2022-11-20T14:15:59;4.85;;;2.05;;
52072;SDS011;38074;51.232;6.826;2022-11-20T14:23:23;2.65;;;1.77;;
52072;SDS011;38074;51.232;6.826;2022-11-20T14:30:44;2.55;;;1.90;;
52072;SDS011;38074;51.232;6.826;2022-11-20T14:38:02;2.00;;;1.65;;
52072;SDS011;38074;51.232;6.826;2022-11-20T14:45:18;3.03;;;1.80;;
52072;SDS011;38074;51.232;6.826;2022-11-20T14:52:35;2.47;;;1.87;;
52072;SDS011;38074;51.232;6.826;2022-11-20T14:59:50;2.90;;;2.03;;
52072;SDS011;38074;51.232;6.826;2022-11-20T15:07:06;2.08;;;1.85;;
52072;SDS011;38074;51.232;6.826;2022-11-20T15:14:21;2.42;;;1.83;;
52072;SDS011;38074;51.232;6.826;2022-11-20T15:21:38;2.27;;;2.00;;
52072;SDS011;38074;51.232;6.826;2022-11-20T15:28:53;2.53;;;1.73;;
52072;SDS011;38074;51.232;6.826;2022-11-20T15:36:09;4.57;;;1.87;;
52072;SDS011;38074;51.232;6.826;2022-11-20T15:43:25;4.05;;;1.50;;
52072;SDS011;38074;51.232;6.826;2022-11-20T15:50:47;3.43;;;1.43;;
52072;SDS011;38074;51.232;6.826;2022-11-20T15:58:04;3.45;;;1.42;;
52072;SDS011;38074;51.232;6.826;2022-11-20T16:05:20;3.90;;;2.00;;
52072;SDS011;38074;51.232;6.826;2022-11-20T16:12:38;4.00;;;1.88;;
52072;SDS011;38074;51.232;6.826;2022-11-20T16:20:12;9.05;;;2.25;;
52072;SDS011;38074;51.232;6.826;2022-11-20T16:27:28;9.52;;;2.60;;
52072;SDS011;38074;51.232;6.826;2022-11-20T16:34:43;11.77;;;2.73;;
52072;SDS011;38074;51.232;6.826;2022-11-20T16:42:00;5.13;;;2.33;;
52072;SDS011;38074;51.232;6.826;2022-11-20T16:49:18;10.65;;;2.40;;
52072;SDS011;38074;51.232;6.826;2022-11-20T16:56:34;10.27;;;2.88;;
52072;SDS011;38074;51.232;6.826;2022-11-20T17:03:54;9.47;;;2.50;;
52072;SDS011;38074;51.232;6.826;2022-11-20T17:11:18;9.40;;;2.05;;
52072;SDS011;38074;51.232;6.826;2022-11-20T17:18:33;10.60;;;2.75;;
52072;SDS011;38074;51.232;6.826;2022-11-20T17:25:49;11.10;;;2.93;;
52072;SDS011;38074;51.232;6.826;2022-11-20T17:33:05;10.10;;;2.97;;
52072;SDS011;38074;51.232;6.826;2022-11-20T17:40:20;12.47;;;3.07;;
52072;SDS011;38074;51.232;6.826;2022-11-20T17:47:36;12.15;;;3.33;;
52072;SDS011;38074;51.232;6.826;2022-11-20T17:54:51;9.05;;;2.35;;
52072;SDS011;38074;51.232;6.826;2022-11-20T18:02:09;7.90;;;2.70;;
52072;SDS011;38074;51.232;6.826;2022-11-20T18:09:25;12.23;;;2.20;;
52072;SDS011;38074;51.232;6.826;2022-11-20T18:16:49;4.10;;;2.30;;
52072;SDS011;38074;51.232;6.826;2022-11-20T18:24:09;4.30;;;2.47;;
52072;SDS011;38074;51.232;6.826;2022-11-20T18:31:24;6.00;;;2.08;;
52072;SDS011;38074;51.232;6.826;2022-11-20T18:38:41;3.83;;;2.23;;
52072;SDS011;38074;51.232;6.826;2022-11-20T18:46:01;8.77;;;2.25;;
52072;SDS011;38074;51.232;6.826;2022-11-20T18:53:17;5.30;;;1.90;;
52072;SDS011;38074;51.232;6.826;2022-11-20T19:00:33;3.97;;;1.67;;
52072;SDS011;38074;51.232;6.826;2022-11-20T19:07:48;3.63;;;1.70;;
52072;SDS011;38074;51.232;6.826;2022-11-20T19:15:04;4.73;;;1.37;;
52072;SDS011;38074;51.232;6.826;2022-11-20T19:22:20;4.65;;;1.50;;
52072;SDS011;38074;51.232;6.826;2022-11-20T19:29:36;4.65;;;1.35;;
52072;SDS011;38074;51.232;6.826;2022-11-20T19:36:52;3.78;;;1.25;;
52072;SDS011;38074;51.232;6.826;2022-11-20T19:44:08;2.40;;;0.90;;
52072;SDS011;38074;51.232;6.826;2022-11-20T19:51:28;3.42;;;1.27;;
52072;SDS011;38074;51.232;6.826;2022-11-20T19:58:45;3.10;;;0.95;;
52072;SDS011;38074;51.232;6.826;2022-11-20T20:06:05;4.73;;;1.30;;
52072;SDS011;38074;51.232;6.826;2022-11-20T20:13:22;4.35;;;1.13;;
52072;SDS011;38074;51.232;6.826;2022-11-20T20:20:38;4.25;;;1.15;;
52072;SDS011;38074;51.232;6.826;2022-11-20T20:27:53;6.03;;;1.10;;
52072;SDS011;38074;51.232;6.826;2022-11-20T20:35:09;3.05;;;0.95;;
52072;SDS011;38074;51.232;6.826;2022-11-20T20:42:24;2.23;;;0.80;;
52072;SDS011;38074;51.232;6.826;2022-11-20T20:49:40;5.00;;;1.15;;
52072;SDS011;38074;51.232;6.826;2022-11-20T20:56:57;2.05;;;0.80;;
52072;SDS011;38074;51.232;6.826;2022-11-20T21:04:12;2.27;;;0.60;;
52072;SDS011;38074;51.232;6.826;2022-11-20T21:11:28;1.63;;;0.70;;
52072;SDS011;38074;51.232;6.826;2022-11-20T21:18:43;1.90;;;0.50;;
52072;SDS011;38074;51.232;6.826;2022-11-20T21:25:59;1.23;;;0.60;;
52072;SDS011;38074;51.232;6.826;2022-11-20T21:33:16;2.40;;;0.50;;
52072;SDS011;38074;51.232;6.826;2022-11-20T21:40:32;1.67;;;0.47;;
52072;SDS011;38074;51.232;6.826;2022-11-20T21:47:48;1.37;;;0.50;;
52072;SDS011;38074;51.232;6.826;2022-11-20T22:02:20;0.85;;;0.30;;
52072;SDS011;38074;51.232;6.826;2022-11-20T22:09:36;1.00;;;0.40;;
52072;SDS011;38074;51.232;6.826;2022-11-20T22:16:52;0.30;;;0.20;;
52072;SDS011;38074;51.232;6.826;2022-11-20T22:24:11;1.05;;;0.30;;
52072;SDS011;38074;51.232;6.826;2022-11-20T22:31:27;0.57;;;0.20;;
52072;SDS011;38074;51.232;6.826;2022-11-20T22:38:43;0.90;;;0.33;;
52072;SDS011;38074;51.232;6.826;2022-11-20T22:46:01;1.10;;;0.50;;
52072;SDS011;38074;51.232;6.826;2022-11-20T22:53:26;0.90;;;0.22;;
52072;SDS011;38074;51.232;6.826;2022-11-20T23:00:41;0.90;;;0.37;;
52072;SDS011;38074;51.232;6.826;2022-11-20T23:07:57;1.27;;;0.30;;
52072;SDS011;38074;51.232;6.826;2022-11-20T23:15:12;1.13;;;0.30;;
52072;SDS011;38074;51.232;6.826;2022-11-20T23:22:28;0.80;;;0.30;;
52072;SDS011;38074;51.232;6.826;2022-11-20T23:29:45;1.05;;;0.40;;
52072;SDS011;38074;51.232;6.826;2022-11-20T23:37:01;0.97;;;0.40;;
52072;SDS011;38074;51.232;6.826;2022-11-20T23:44:16;0.53;;;0.20;;
52072;SDS011;38074;51.232;6.826;2022-11-20T23:51:32;1.33;;;0.60;;
52072;SDS011;38074;51.232;6.826;2022-11-20T23:58:47;1.00;;;0.53;;
